createdAt,value
2023-02-18T00:00:10.180Z,10.93
2023-02-18T00:03:12.211Z,11.50
2023-02-18T00:06:35.489Z,10.50
2023-02-18T00:09:39.129Z,11.75
2023-02-18T00:12:42.869Z,11.68
2023-02-18T00:15:47.266Z,11.50
2023-02-18T00:18:49.730Z,9.65
2023-02-18T00:21:51.943Z,10.75
2023-02-18T00:24:54.028Z,11.02
2023-02-18T00:27:56.078Z,10.52
2023-02-18T00:30:59.031Z,11.05
2023-02-18T00:34:01.444Z,10.55
2023-02-18T00:37:04.225Z,9.65
2023-02-18T00:40:07.106Z,9.23
2023-02-18T00:43:10.759Z,9.32
2023-02-18T00:46:13.364Z,8.75
2023-02-18T00:49:16.206Z,10.43
2023-02-18T00:52:18.234Z,10.70
2023-02-18T00:55:20.279Z,9.65
2023-02-18T00:58:22.277Z,9.57
2023-02-18T01:01:24.660Z,10.68
2023-02-18T01:04:26.763Z,10.90
2023-02-18T01:07:30.565Z,9.00
2023-02-18T01:10:33.043Z,10.80
2023-02-18T01:13:36.058Z,8.88
2023-02-18T01:16:38.194Z,10.35
2023-02-18T01:19:44.031Z,11.75
2023-02-18T01:22:47.866Z,11.00
2023-02-18T01:25:50.177Z,10.68
2023-02-18T01:28:52.229Z,11.73
2023-02-18T01:31:55.686Z,11.30
2023-02-18T01:34:57.795Z,12.18
2023-02-18T01:38:02.921Z,11.77
2023-02-18T01:41:05.470Z,11.25
2023-02-18T01:44:20.572Z,11.32
2023-02-18T01:47:23.721Z,12.50
2023-02-18T01:50:28.138Z,10.35
2023-02-18T01:54:02.060Z,11.57
2023-02-18T01:57:08.087Z,10.23
2023-02-18T02:00:17.330Z,10.63
2023-02-18T02:03:21.906Z,10.25
2023-02-18T02:06:25.544Z,10.88
2023-02-18T02:09:31.238Z,10.68
2023-02-18T02:12:36.021Z,11.18
2023-02-18T02:16:01.260Z,10.85
2023-02-18T02:19:31.224Z,10.23
2023-02-18T02:22:56.194Z,10.10
2023-02-18T02:26:53.923Z,9.70
2023-02-18T02:29:56.864Z,11.20
2023-02-18T02:33:22.117Z,11.57
2023-02-18T02:36:42.386Z,11.60
2023-02-18T02:40:15.835Z,10.68
2023-02-18T02:44:09.219Z,11.00
2023-02-18T02:47:33.067Z,10.45
2023-02-18T02:50:45.169Z,9.90
2023-02-18T02:53:47.239Z,9.77
2023-02-18T02:56:49.988Z,9.82
2023-02-18T03:00:02.367Z,9.85
2023-02-18T03:03:12.359Z,10.40
2023-02-18T03:07:02.544Z,10.38
2023-02-18T03:10:35.432Z,10.57
2023-02-18T03:14:14.346Z,10.38
2023-02-18T03:17:30.206Z,9.93
2023-02-18T03:20:40.075Z,9.23
2023-02-18T03:23:58.967Z,10.27
2023-02-18T03:27:09.943Z,10.25
2023-02-18T03:30:21.758Z,10.48
2023-02-18T03:33:30.255Z,9.93
2023-02-18T03:36:35.612Z,10.00
2023-02-18T03:39:41.982Z,10.05
2023-02-18T03:42:45.614Z,11.05
2023-02-18T03:45:47.638Z,10.23
2023-02-18T03:48:50.272Z,10.15
2023-02-18T03:51:52.421Z,10.70
2023-02-18T03:54:54.492Z,9.30
2023-02-18T03:57:56.629Z,9.27
2023-02-18T04:00:58.688Z,9.63
2023-02-18T04:04:00.811Z,9.05
2023-02-18T04:07:03.001Z,10.48
2023-02-18T04:10:06.487Z,9.88
2023-02-18T04:13:08.577Z,9.25
2023-02-18T04:16:10.648Z,10.57
2023-02-18T04:19:12.635Z,10.18
2023-02-18T04:22:15.993Z,9.45
2023-02-18T04:25:18.137Z,9.00
2023-02-18T04:28:20.134Z,8.00
2023-02-18T04:31:22.570Z,8.85
2023-02-18T04:34:24.763Z,8.95
2023-02-18T04:37:26.825Z,8.35
2023-02-18T04:40:30.830Z,7.78
2023-02-18T04:43:32.909Z,8.93
2023-02-18T04:46:35.981Z,9.35
2023-02-18T04:49:38.154Z,7.95
2023-02-18T04:52:40.327Z,8.13
2023-02-18T04:55:42.448Z,8.18
2023-02-18T04:58:44.496Z,8.85
2023-02-18T05:01:46.838Z,8.00
2023-02-18T05:04:49.005Z,7.95
2023-02-18T05:07:51.040Z,7.93
2023-02-18T05:10:53.000Z,8.43
2023-02-18T05:13:54.955Z,6.97
2023-02-18T05:16:58.412Z,8.13
2023-02-18T05:20:00.709Z,8.35
2023-02-18T05:23:02.879Z,6.72
2023-02-18T05:26:05.321Z,6.82
2023-02-18T05:29:07.570Z,7.03
2023-02-18T05:32:09.860Z,7.75
2023-02-18T05:35:12.102Z,6.82
2023-02-18T05:38:14.203Z,6.63
2023-02-18T05:41:16.461Z,6.55
2023-02-18T05:44:30.598Z,5.95
2023-02-18T05:47:32.676Z,6.13
2023-02-18T05:50:34.899Z,7.18
2023-02-18T05:53:36.975Z,6.20
2023-02-18T05:56:39.046Z,5.80
2023-02-18T05:59:41.417Z,6.18
2023-02-18T06:02:43.660Z,6.90
2023-02-18T06:05:45.832Z,7.53
2023-02-18T06:08:47.888Z,7.18
2023-02-18T06:11:50.086Z,7.88
2023-02-18T06:14:52.114Z,6.90
2023-02-18T06:17:54.262Z,6.47
2023-02-18T06:20:56.323Z,7.70
2023-02-18T06:23:58.535Z,7.60
2023-02-18T06:27:00.746Z,6.90
2023-02-18T06:30:03.050Z,7.40
2023-02-18T06:33:05.472Z,7.07
2023-02-18T06:36:11.871Z,8.57
2023-02-18T06:39:14.055Z,5.80
2023-02-18T06:42:16.160Z,8.20
2023-02-18T06:45:18.402Z,6.78
2023-02-18T06:48:20.521Z,7.88
2023-02-18T06:51:22.536Z,7.20
2023-02-18T06:54:25.527Z,7.65
2023-02-18T06:57:27.529Z,6.60
2023-02-18T07:00:31.039Z,8.82
2023-02-18T07:03:33.531Z,9.95
2023-02-18T07:06:35.776Z,9.75
2023-02-18T07:09:38.099Z,8.80
2023-02-18T07:12:40.106Z,8.45
2023-02-18T07:15:42.125Z,9.43
2023-02-18T07:18:46.534Z,11.45
2023-02-18T07:21:48.565Z,10.68
2023-02-18T07:24:54.028Z,10.77
2023-02-18T07:27:56.126Z,11.68
2023-02-18T07:30:58.239Z,13.27
2023-02-18T07:34:00.666Z,11.65
2023-02-18T07:37:02.942Z,10.60
2023-02-18T07:40:07.878Z,10.95
2023-02-18T07:43:09.933Z,13.50
2023-02-18T07:46:15.287Z,12.63
2023-02-18T07:49:17.511Z,10.07
2023-02-18T07:52:19.540Z,10.43
2023-02-18T07:55:21.933Z,8.40
2023-02-18T07:58:28.592Z,5.95
2023-02-18T08:01:31.156Z,5.30
2023-02-18T08:04:34.033Z,3.38
2023-02-18T08:07:36.132Z,3.55
2023-02-18T08:10:38.169Z,3.45
2023-02-18T08:13:40.207Z,3.42
2023-02-18T08:16:42.319Z,3.80
2023-02-18T08:19:44.340Z,4.55
2023-02-18T08:22:46.389Z,3.55
2023-02-18T08:25:51.806Z,2.88
2023-02-18T08:28:54.181Z,2.60
2023-02-18T08:31:58.321Z,2.38
2023-02-18T08:35:01.202Z,2.50
2023-02-18T08:38:03.174Z,2.20
2023-02-18T08:41:09.821Z,1.77
2023-02-18T08:44:12.033Z,1.65
2023-02-18T08:48:16.690Z,2.10
2023-02-18T08:50:36.751Z,3.03
2023-02-18T08:53:39.138Z,1.90
2023-02-18T08:56:41.848Z,2.55
2023-02-18T08:59:44.036Z,2.70
2023-02-18T09:02:47.617Z,2.58
2023-02-18T09:05:49.807Z,2.60
2023-02-18T09:08:51.883Z,2.33
2023-02-18T09:11:53.951Z,2.88
2023-02-18T09:14:56.042Z,2.15
2023-02-18T09:17:59.906Z,2.70
2023-02-18T09:21:02.404Z,1.63
2023-02-18T09:24:04.638Z,1.67
2023-02-18T09:27:07.587Z,1.77
2023-02-18T09:30:10.836Z,2.25
2023-02-18T09:33:13.183Z,1.25
2023-02-18T09:36:15.603Z,1.13
2023-02-18T09:39:18.924Z,1.05
2023-02-18T09:42:28.292Z,1.63
2023-02-18T09:45:30.557Z,1.48
2023-02-18T09:48:36.315Z,1.20
2023-02-18T09:51:38.380Z,1.88
2023-02-18T09:54:41.078Z,1.38
2023-02-18T09:57:50.304Z,1.00
2023-02-18T10:01:26.036Z,1.25
2023-02-18T10:04:40.996Z,1.40
2023-02-18T10:07:46.038Z,1.20
2023-02-18T10:10:48.292Z,0.90
2023-02-18T10:13:50.939Z,1.40
2023-02-18T10:16:54.158Z,0.98
2023-02-18T10:19:58.509Z,1.30
2023-02-18T10:23:05.465Z,1.55
2023-02-18T10:26:15.078Z,1.80
2023-02-18T10:29:22.137Z,1.80
2023-02-18T10:32:47.061Z,1.30
2023-02-18T10:36:04.430Z,2.28
2023-02-18T10:39:21.610Z,1.33
2023-02-18T10:43:04.134Z,1.25
2023-02-18T10:46:24.227Z,1.38
2023-02-18T10:49:52.990Z,0.85
2023-02-18T10:52:59.610Z,1.20
2023-02-18T10:56:02.243Z,1.52
2023-02-18T10:59:21.440Z,1.48
2023-02-18T11:05:29.828Z,1.40
2023-02-18T11:08:42.795Z,2.05
2023-02-18T11:11:50.625Z,1.00
2023-02-18T11:15:24.710Z,1.90
2023-02-18T11:18:31.918Z,1.90
2023-02-18T11:21:38.570Z,1.33
2023-02-18T11:24:40.748Z,1.30
2023-02-18T11:27:46.391Z,1.50
2023-02-18T11:30:54.289Z,1.63
2023-02-18T11:34:01.189Z,1.67
2023-02-18T11:37:32.611Z,1.60
2023-02-18T11:40:36.737Z,2.22
2023-02-18T11:43:43.092Z,1.95
2023-02-18T11:47:05.528Z,1.65
2023-02-18T11:50:10.429Z,1.90
2023-02-18T11:53:38.513Z,1.10
2023-02-18T11:56:40.583Z,1.55
2023-02-18T11:59:43.066Z,1.40
2023-02-18T12:02:45.356Z,1.60
2023-02-18T12:05:48.239Z,1.25
2023-02-18T12:08:56.202Z,1.38
2023-02-18T12:12:07.178Z,1.48
2023-02-18T12:15:14.176Z,1.45
2023-02-18T12:18:19.954Z,1.42
2023-02-18T12:21:58.495Z,1.33
2023-02-18T12:25:06.099Z,1.52
2023-02-18T12:28:25.588Z,1.15
2023-02-18T12:32:05.703Z,1.83
2023-02-18T12:38:39.630Z,1.30
2023-02-18T12:42:09.972Z,1.98
2023-02-18T12:45:27.445Z,1.17
2023-02-18T12:48:29.503Z,2.00
2023-02-18T12:51:46.767Z,1.67
2023-02-18T12:55:09.336Z,1.15
2023-02-18T12:58:35.676Z,1.63
2023-02-18T13:02:23.294Z,1.88
2023-02-18T13:05:38.357Z,1.10
2023-02-18T13:08:55.783Z,1.45
2023-02-18T13:12:06.727Z,1.20
2023-02-18T13:15:17.563Z,0.90
2023-02-18T13:18:30.623Z,1.10
2023-02-18T13:21:34.028Z,1.17
2023-02-18T13:24:38.633Z,1.70
2023-02-18T13:28:15.852Z,1.35
2023-02-18T13:31:49.680Z,1.30
2023-02-18T13:35:04.929Z,1.42
2023-02-18T13:38:27.343Z,0.60
2023-02-18T13:41:29.669Z,1.38
2023-02-18T13:45:16.746Z,1.73
2023-02-18T13:48:27.037Z,2.40
2023-02-18T13:51:30.908Z,1.25
2023-02-18T13:54:37.392Z,1.55
2023-02-18T13:57:39.590Z,1.73
2023-02-18T14:00:50.054Z,1.50
2023-02-18T14:03:57.032Z,1.50
2023-02-18T14:07:26.912Z,1.38
2023-02-18T14:10:34.919Z,2.85
2023-02-18T14:13:41.055Z,2.13
2023-02-18T14:17:22.702Z,2.30
2023-02-18T14:20:29.146Z,1.45
2023-02-18T14:23:37.493Z,2.55
2023-02-18T14:26:46.026Z,2.20
2023-02-18T14:29:52.285Z,2.50
2023-02-18T14:32:59.631Z,2.92
2023-02-18T14:36:29.944Z,2.70
2023-02-18T14:39:49.777Z,3.00
2023-02-18T14:43:23.101Z,2.15
2023-02-18T14:47:01.989Z,2.72
2023-02-18T14:50:10.950Z,4.05
2023-02-18T14:53:18.753Z,4.55
2023-02-18T14:56:22.233Z,4.45
2023-02-18T14:59:29.176Z,3.90
2023-02-18T15:02:38.869Z,4.30
2023-02-18T15:05:41.114Z,3.38
2023-02-18T15:08:43.143Z,4.53
2023-02-18T15:11:53.080Z,4.82
2023-02-18T15:14:59.973Z,5.38
2023-02-18T15:18:04.984Z,4.40
2023-02-18T15:21:28.317Z,3.92
2023-02-18T15:24:39.389Z,2.85
2023-02-18T15:27:47.129Z,4.20
2023-02-18T15:30:49.526Z,5.43
2023-02-18T15:33:52.836Z,4.80
2023-02-18T15:36:55.946Z,4.60
2023-02-18T15:39:58.606Z,5.03
2023-02-18T15:43:04.186Z,5.47
2023-02-18T15:46:14.369Z,6.15
2023-02-18T15:49:23.316Z,6.47
2023-02-18T15:52:31.906Z,6.13
2023-02-18T15:55:38.737Z,6.32
2023-02-18T15:58:40.858Z,6.35
2023-02-18T16:01:42.889Z,8.38
2023-02-18T16:04:51.377Z,9.07
2023-02-18T16:11:07.679Z,13.20
2023-02-18T16:14:31.811Z,9.82
2023-02-18T16:17:33.993Z,7.30
2023-02-18T16:20:38.101Z,7.47
2023-02-18T16:23:45.665Z,6.97
2023-02-18T16:26:47.707Z,7.60
2023-02-18T16:29:51.999Z,5.88
2023-02-18T16:32:54.969Z,7.95
2023-02-18T16:35:57.912Z,7.65
2023-02-18T16:39:02.212Z,8.38
2023-02-18T16:42:10.485Z,8.32
2023-02-18T16:45:13.386Z,11.27
2023-02-18T16:48:24.564Z,12.30
2023-02-18T16:51:31.847Z,8.68
2023-02-18T16:54:36.470Z,9.02
2023-02-18T16:57:39.912Z,8.07
2023-02-18T17:00:43.637Z,8.23
2023-02-18T17:03:47.871Z,9.23
2023-02-18T17:06:51.146Z,10.45
2023-02-18T17:09:59.788Z,10.18
2023-02-18T17:13:01.771Z,10.98
2023-02-18T17:16:03.896Z,11.18
2023-02-18T17:19:06.298Z,11.73
2023-02-18T17:22:10.258Z,14.35
2023-02-18T17:25:20.606Z,18.23
2023-02-18T17:28:23.344Z,19.90
2023-02-18T17:31:29.046Z,19.63
2023-02-18T17:34:32.795Z,18.88
2023-02-18T17:37:34.809Z,18.30
2023-02-18T17:40:36.858Z,16.17
2023-02-18T17:43:39.329Z,15.88
2023-02-18T17:46:44.876Z,15.90
2023-02-18T17:49:47.139Z,14.18
2023-02-18T17:52:49.323Z,11.63
2023-02-18T17:55:51.896Z,15.43
2023-02-18T17:58:53.889Z,11.98
2023-02-18T18:01:56.027Z,14.70
2023-02-18T18:04:58.132Z,15.23
2023-02-18T18:08:01.772Z,19.73
2023-02-18T18:11:06.048Z,15.88
2023-02-18T18:14:11.784Z,18.45
2023-02-18T18:17:14.610Z,16.90
2023-02-18T18:20:17.774Z,15.88
2023-02-18T18:23:21.830Z,15.40
2023-02-18T18:26:30.758Z,15.63
2023-02-18T18:29:33.678Z,15.02
2023-02-18T18:32:36.887Z,14.82
2023-02-18T18:35:38.939Z,14.38
2023-02-18T18:42:12.542Z,17.50
2023-02-18T18:45:22.718Z,18.77
2023-02-18T18:48:27.143Z,18.92
2023-02-18T18:51:32.720Z,18.98
2023-02-18T18:54:37.199Z,18.45
2023-02-18T18:57:39.248Z,21.17
2023-02-18T19:00:43.930Z,19.73
2023-02-18T19:03:47.406Z,17.77
2023-02-18T19:06:51.933Z,17.27
2023-02-18T19:09:53.920Z,18.98
2023-02-18T19:13:05.118Z,17.17
2023-02-18T19:16:17.269Z,16.23
2023-02-18T19:19:21.133Z,15.88
2023-02-18T19:22:23.607Z,16.63
2023-02-18T19:25:27.512Z,18.05
2023-02-18T19:28:29.669Z,20.02
2023-02-18T19:31:31.780Z,19.10
2023-02-18T19:34:36.993Z,19.15
2023-02-18T19:37:39.370Z,20.27
2023-02-18T19:40:42.336Z,21.15
2023-02-18T19:43:46.995Z,21.58
2023-02-18T19:46:49.126Z,22.77
2023-02-18T19:49:53.152Z,21.67
2023-02-18T19:52:56.302Z,22.08
2023-02-18T19:56:07.354Z,23.77
2023-02-18T19:59:09.376Z,24.38
2023-02-18T20:02:23.264Z,23.67
2023-02-18T20:05:25.624Z,24.35
2023-02-18T20:08:27.778Z,23.55
2023-02-18T20:11:32.739Z,21.13
2023-02-18T20:14:37.415Z,21.85
2023-02-18T20:17:39.651Z,21.13
2023-02-18T20:20:49.120Z,20.70
2023-02-18T20:23:54.890Z,19.27
2023-02-18T20:26:58.056Z,20.20
2023-02-18T20:30:01.080Z,23.30
2023-02-18T20:33:04.624Z,20.65
2023-02-18T20:36:08.707Z,21.17
2023-02-18T20:39:16.269Z,22.13
2023-02-18T20:42:18.848Z,20.03
2023-02-18T20:45:26.178Z,22.90
2023-02-18T20:48:28.280Z,21.50
2023-02-18T20:51:30.358Z,20.60
2023-02-18T20:54:32.582Z,18.58
2023-02-18T20:57:35.707Z,19.27
2023-02-18T21:00:37.867Z,19.17
2023-02-18T21:03:41.003Z,20.08
2023-02-18T21:06:45.641Z,19.90
2023-02-18T21:09:55.427Z,19.27
2023-02-18T21:12:57.463Z,20.73
2023-02-18T21:16:02.832Z,18.85
2023-02-18T21:19:07.465Z,19.83
2023-02-18T21:22:09.452Z,17.65
2023-02-18T21:25:14.114Z,17.38
2023-02-18T21:28:16.139Z,15.75
2023-02-18T21:31:22.631Z,17.38
2023-02-18T21:34:26.114Z,17.45
2023-02-18T21:37:28.426Z,14.98
2023-02-18T21:40:31.307Z,17.33
2023-02-18T21:43:33.505Z,15.30
2023-02-18T21:46:37.399Z,16.80
2023-02-18T21:49:39.563Z,16.58
2023-02-18T21:52:43.035Z,16.92
2023-02-18T21:55:55.317Z,16.83
2023-02-18T21:59:04.467Z,15.88
2023-02-18T22:02:12.803Z,14.20
2023-02-18T22:08:18.760Z,14.25
2023-02-18T22:11:20.837Z,14.15
2023-02-18T22:14:23.130Z,12.25
2023-02-18T22:17:25.263Z,13.45
2023-02-18T22:20:27.442Z,12.45
2023-02-18T22:23:31.463Z,12.07
2023-02-18T22:26:34.220Z,12.73
2023-02-18T22:29:36.177Z,11.93
2023-02-18T22:32:39.254Z,12.30
2023-02-18T22:35:41.295Z,10.93
2023-02-18T22:38:43.583Z,9.50
2023-02-18T22:41:45.725Z,7.22
2023-02-18T22:44:47.779Z,7.38
2023-02-18T22:47:49.789Z,6.80
2023-02-18T22:50:51.872Z,7.10
2023-02-18T22:53:56.356Z,6.88
2023-02-18T22:56:58.416Z,6.70
2023-02-18T23:00:00.396Z,6.32
2023-02-18T23:03:02.496Z,6.25
2023-02-18T23:06:06.124Z,5.57
2023-02-18T23:09:11.569Z,6.68
2023-02-18T23:12:13.629Z,6.60
2023-02-18T23:15:16.962Z,6.75
2023-02-18T23:18:18.993Z,7.10
2023-02-18T23:21:21.348Z,7.28
2023-02-18T23:24:23.527Z,6.95
2023-02-18T23:27:26.120Z,7.72
2023-02-18T23:30:28.228Z,8.20
2023-02-18T23:33:30.297Z,7.53
2023-02-18T23:36:34.656Z,8.15
2023-02-18T23:39:37.577Z,11.88
2023-02-18T23:42:39.633Z,17.70
2023-02-18T23:45:44.013Z,14.30
2023-02-18T23:48:46.225Z,13.75
2023-02-18T23:51:49.505Z,14.07
2023-02-18T23:54:51.520Z,10.85
2023-02-18T23:57:53.487Z,11.65
